Laurel, Florida
Current Conditions -  °F | °C
As of 12:53 PM on Saturday 25 Oct 2014 (Local Time) from KSRQ Reporting Station
Clear Clear  
Wind Chill: 77°   Ceiling: Unl
Heat Index: 78°   Visibility: 10mi
Dew Point: 55°   Wind: 8mph
Humidity: 46%   Direction: 360°N
Pressure: 29.98"   Gusts: NA
Location:  27.14°N, 82.46°W
Report Text: KSRQ 251653Z 36007KT 10SM CLR 25/13 A2998 RMK AO2 SLP151 T02500128
Loading
Personal Weather Stations






























Interactive Weather Map
Tropical Storm Tracking
New forecast layout! Learn more

10-Day Weather Forecast

Advertisements
Track Severe Weather on mobile